Goiatuba, Brazil
Current Conditions -  °F | °C
As of 11:00 PM on Tuesday 27 Jan 2015 (Local Time) from SBUL Reporting Station
Thunderstorm Thunderstorm  
Wind Chill: 70°   Ceiling: Unl
Heat Index: 70°   Visibility: 6mi
Dew Point: 64°   Wind: 15mph
Humidity: 83%   Direction: 40°NE
Pressure: 30.12"   Gusts: NA
Location:  18.01°S, 49.35°W
Report Text: SBUL 280100Z 04013KT 9999 -RA VCTS FEW030 FEW035CB 21/18 Q1020
Loading
Personal Weather Stations






























Interactive Weather Map New forecast layout! Learn more

10-Day Weather Forecast

Advertisements
Track Severe Weather on mobile